sensor_id;sensor_type;location;lat;lon;timestamp;pressure;altitude;pressure_sealevel;temperature;humidity
4085;BME280;2057;50.858;6.572;2023-03-13T00:01:38;99271.72;;;10.64;98.41
4085;BME280;2057;50.858;6.572;2023-03-13T00:04:04;99264.22;;;10.67;98.47
4085;BME280;2057;50.858;6.572;2023-03-13T00:06:32;99269.94;;;10.60;99.18
4085;BME280;2057;50.858;6.572;2023-03-13T00:08:59;99258.41;;;10.72;98.19
4085;BME280;2057;50.858;6.572;2023-03-13T00:11:32;99245.44;;;10.62;98.98
4085;BME280;2057;50.858;6.572;2023-03-13T00:13:59;99233.47;;;10.57;99.66
4085;BME280;2057;50.858;6.572;2023-03-13T00:16:26;99226.00;;;10.63;99.67
4085;BME280;2057;50.858;6.572;2023-03-13T00:18:53;99223.59;;;10.67;100.00
4085;BME280;2057;50.858;6.572;2023-03-13T00:21:21;99218.56;;;10.69;100.00
4085;BME280;2057;50.858;6.572;2023-03-13T00:23:49;99218.94;;;10.52;100.00
4085;BME280;2057;50.858;6.572;2023-03-13T00:26:17;99219.88;;;10.55;100.00
4085;BME280;2057;50.858;6.572;2023-03-13T00:28:43;99212.94;;;10.49;100.00
4085;BME280;2057;50.858;6.572;2023-03-13T00:31:15;99195.06;;;10.46;100.00
4085;BME280;2057;50.858;6.572;2023-03-13T00:33:47;99194.88;;;10.38;100.00
4085;BME280;2057;50.858;6.572;2023-03-13T00:36:18;99196.59;;;10.39;100.00
4085;BME280;2057;50.858;6.572;2023-03-13T00:38:44;99185.47;;;10.35;100.00
4085;BME280;2057;50.858;6.572;2023-03-13T00:41:18;99173.06;;;10.45;100.00
4085;BME280;2057;50.858;6.572;2023-03-13T00:43:44;99177.16;;;10.40;100.00
4085;BME280;2057;50.858;6.572;2023-03-13T00:46:11;99175.44;;;10.39;100.00
4085;BME280;2057;50.858;6.572;2023-03-13T00:48:37;99170.47;;;10.43;100.00
4085;BME280;2057;50.858;6.572;2023-03-13T00:51:06;99178.19;;;10.46;100.00
4085;BME280;2057;50.858;6.572;2023-03-13T00:53:31;99164.72;;;10.49;100.00
4085;BME280;2057;50.858;6.572;2023-03-13T00:58:25;99152.94;;;10.51;100.00
4085;BME280;2057;50.858;6.572;2023-03-13T01:00:51;99160.34;;;10.43;100.00
4085;BME280;2057;50.858;6.572;2023-03-13T01:03:16;99159.81;;;10.55;100.00
4085;BME280;2057;50.858;6.572;2023-03-13T01:05:42;99159.06;;;10.58;100.00
4085;BME280;2057;50.858;6.572;2023-03-13T01:08:07;99152.16;;;10.54;100.00
4085;BME280;2057;50.858;6.572;2023-03-13T01:10:33;99155.25;;;10.43;100.00
4085;BME280;2057;50.858;6.572;2023-03-13T01:12:58;99159.56;;;10.46;100.00
4085;BME280;2057;50.858;6.572;2023-03-13T01:15:24;99153.59;;;10.44;100.00
4085;BME280;2057;50.858;6.572;2023-03-13T01:17:52;99145.09;;;10.43;100.00
4085;BME280;2057;50.858;6.572;2023-03-13T01:20:20;99143.50;;;10.47;100.00
4085;BME280;2057;50.858;6.572;2023-03-13T01:22:45;99130.03;;;10.49;100.00
4085;BME280;2057;50.858;6.572;2023-03-13T01:25:10;99128.38;;;10.50;100.00
4085;BME280;2057;50.858;6.572;2023-03-13T01:27:36;99118.13;;;10.47;100.00
4085;BME280;2057;50.858;6.572;2023-03-13T01:30:01;99118.31;;;10.53;100.00
4085;BME280;2057;50.858;6.572;2023-03-13T01:32:26;99107.50;;;10.60;100.00
4085;BME280;2057;50.858;6.572;2023-03-13T01:34:52;99109.84;;;10.52;100.00
4085;BME280;2057;50.858;6.572;2023-03-13T01:37:17;99109.84;;;10.52;100.00
4085;BME280;2057;50.858;6.572;2023-03-13T01:39:42;99103.72;;;10.46;100.00
4085;BME280;2057;50.858;6.572;2023-03-13T01:42:08;99095.56;;;10.56;100.00
4085;BME280;2057;50.858;6.572;2023-03-13T01:44:53;99089.75;;;10.60;100.00
4085;BME280;2057;50.858;6.572;2023-03-13T01:47:19;99084.63;;;10.59;100.00
4085;BME280;2057;50.858;6.572;2023-03-13T01:49:45;99066.91;;;10.60;100.00
4085;BME280;2057;50.858;6.572;2023-03-13T01:52:25;99070.13;;;10.53;100.00
4085;BME280;2057;50.858;6.572;2023-03-13T01:55:08;99059.41;;;10.65;100.00
4085;BME280;2057;50.858;6.572;2023-03-13T01:57:39;99059.59;;;10.73;100.00
4085;BME280;2057;50.858;6.572;2023-03-13T02:00:24;99047.53;;;10.64;100.00
4085;BME280;2057;50.858;6.572;2023-03-13T02:02:54;99037.38;;;10.64;100.00
4085;BME280;2057;50.858;6.572;2023-03-13T02:05:24;99026.44;;;10.66;100.00
4085;BME280;2057;50.858;6.572;2023-03-13T02:08:03;99018.00;;;10.66;100.00
4085;BME280;2057;50.858;6.572;2023-03-13T02:10:33;99026.00;;;10.48;100.00
4085;BME280;2057;50.858;6.572;2023-03-13T02:13:08;99012.25;;;10.40;100.00
4085;BME280;2057;50.858;6.572;2023-03-13T02:15:39;98999.41;;;10.35;100.00
4085;BME280;2057;50.858;6.572;2023-03-13T02:18:05;98996.91;;;10.36;100.00
4085;BME280;2057;50.858;6.572;2023-03-13T02:20:33;98995.44;;;10.45;100.00
4085;BME280;2057;50.858;6.572;2023-03-13T02:23:55;99001.00;;;10.31;100.00
4085;BME280;2057;50.858;6.572;2023-03-13T02:26:22;98994.88;;;10.23;100.00
4085;BME280;2057;50.858;6.572;2023-03-13T02:28:47;98992.22;;;10.18;100.00
4085;BME280;2057;50.858;6.572;2023-03-13T02:31:14;98983.97;;;10.26;100.00
4085;BME280;2057;50.858;6.572;2023-03-13T02:33:41;98983.97;;;10.26;100.00
4085;BME280;2057;50.858;6.572;2023-03-13T02:36:11;98994.97;;;10.26;100.00
4085;BME280;2057;50.858;6.572;2023-03-13T02:38:44;98993.41;;;10.31;100.00
4085;BME280;2057;50.858;6.572;2023-03-13T02:41:12;98989.25;;;10.35;100.00
4085;BME280;2057;50.858;6.572;2023-03-13T02:43:37;98985.16;;;10.39;100.00
4085;BME280;2057;50.858;6.572;2023-03-13T02:48:42;98974.34;;;10.46;100.00
4085;BME280;2057;50.858;6.572;2023-03-13T02:51:24;98964.28;;;10.49;100.00
4085;BME280;2057;50.858;6.572;2023-03-13T02:53:53;98959.28;;;10.52;100.00
4085;BME280;2057;50.858;6.572;2023-03-13T02:56:23;98956.78;;;10.54;100.00
4085;BME280;2057;50.858;6.572;2023-03-13T02:58:49;98956.81;;;10.55;100.00
4085;BME280;2057;50.858;6.572;2023-03-13T03:01:15;98943.28;;;10.56;100.00
4085;BME280;2057;50.858;6.572;2023-03-13T03:03:40;98928.06;;;10.56;100.00
4085;BME280;2057;50.858;6.572;2023-03-13T03:06:08;98912.13;;;10.62;100.00
4085;BME280;2057;50.858;6.572;2023-03-13T03:08:33;98917.09;;;10.57;100.00
4085;BME280;2057;50.858;6.572;2023-03-13T03:10:59;98926.53;;;10.63;100.00
4085;BME280;2057;50.858;6.572;2023-03-13T03:13:25;98911.28;;;10.61;100.00
4085;BME280;2057;50.858;6.572;2023-03-13T03:15:50;98913.84;;;10.63;100.00
4085;BME280;2057;50.858;6.572;2023-03-13T03:18:16;98929.06;;;10.61;100.00
4085;BME280;2057;50.858;6.572;2023-03-13T03:20:44;98926.81;;;10.75;100.00
4085;BME280;2057;50.858;6.572;2023-03-13T03:23:09;98931.22;;;10.82;100.00
4085;BME280;2057;50.858;6.572;2023-03-13T03:25:34;98921.13;;;10.86;100.00
4085;BME280;2057;50.858;6.572;2023-03-13T03:28:00;98931.25;;;10.84;100.00
4085;BME280;2057;50.858;6.572;2023-03-13T03:30:27;98918.75;;;10.92;100.00
4085;BME280;2057;50.858;6.572;2023-03-13T03:32:53;98927.19;;;10.92;100.00
4085;BME280;2057;50.858;6.572;2023-03-13T03:35:18;98920.41;;;10.91;100.00
4085;BME280;2057;50.858;6.572;2023-03-13T03:37:43;98920.53;;;10.97;100.00
4085;BME280;2057;50.858;6.572;2023-03-13T03:40:09;98905.59;;;11.11;100.00
4085;BME280;2057;50.858;6.572;2023-03-13T03:42:35;98904.03;;;11.17;100.00
4085;BME280;2057;50.858;6.572;2023-03-13T03:45:00;98913.22;;;11.11;100.00
4085;BME280;2057;50.858;6.572;2023-03-13T03:47:26;98909.94;;;11.17;100.00
4085;BME280;2057;50.858;6.572;2023-03-13T03:49:51;98904.16;;;11.24;100.00
4085;BME280;2057;50.858;6.572;2023-03-13T03:52:16;98880.63;;;11.33;100.00
4085;BME280;2057;50.858;6.572;2023-03-13T03:54:42;98883.28;;;11.38;100.00
4085;BME280;2057;50.858;6.572;2023-03-13T03:57:07;98881.53;;;11.35;100.00
4085;BME280;2057;50.858;6.572;2023-03-13T03:59:33;98875.59;;;11.36;100.00
4085;BME280;2057;50.858;6.572;2023-03-13T04:02:00;98880.75;;;11.39;100.00
4085;BME280;2057;50.858;6.572;2023-03-13T04:04:26;98900.28;;;11.42;100.00
4085;BME280;2057;50.858;6.572;2023-03-13T04:06:51;98892.66;;;11.42;100.00
4085;BME280;2057;50.858;6.572;2023-03-13T04:09:16;98894.47;;;11.49;100.00
4085;BME280;2057;50.858;6.572;2023-03-13T04:11:42;98873.06;;;11.36;100.00
4085;BME280;2057;50.858;6.572;2023-03-13T04:14:07;98869.69;;;11.37;100.00
4085;BME280;2057;50.858;6.572;2023-03-13T04:16:33;98860.22;;;11.28;100.00
4085;BME280;2057;50.858;6.572;2023-03-13T04:18:58;98865.31;;;11.28;100.00
4085;BME280;2057;50.858;6.572;2023-03-13T04:21:26;98870.28;;;11.24;100.00
4085;BME280;2057;50.858;6.572;2023-03-13T04:23:51;98879.66;;;11.28;100.00
4085;BME280;2057;50.858;6.572;2023-03-13T04:26:17;98880.47;;;11.25;100.00
4085;BME280;2057;50.858;6.572;2023-03-13T04:28:44;98879.56;;;11.23;100.00
4085;BME280;2057;50.858;6.572;2023-03-13T04:31:12;98873.03;;;11.35;100.00
4085;BME280;2057;50.858;6.572;2023-03-13T04:33:40;98884.09;;;11.37;100.00
4085;BME280;2057;50.858;6.572;2023-03-13T04:36:05;98884.09;;;11.37;100.00
4085;BME280;2057;50.858;6.572;2023-03-13T04:38:31;98873.09;;;11.38;100.00
4085;BME280;2057;50.858;6.572;2023-03-13T04:40:56;98876.91;;;11.60;100.00
4085;BME280;2057;50.858;6.572;2023-03-13T04:43:23;98865.19;;;11.68;100.00
4085;BME280;2057;50.858;6.572;2023-03-13T04:45:51;98861.00;;;11.70;100.00
4085;BME280;2057;50.858;6.572;2023-03-13T04:48:18;98860.28;;;11.77;100.00
4085;BME280;2057;50.858;6.572;2023-03-13T04:50:44;98855.06;;;11.71;100.00
4085;BME280;2057;50.858;6.572;2023-03-13T04:53:09;98849.41;;;11.86;100.00
4085;BME280;2057;50.858;6.572;2023-03-13T04:55:34;98842.03;;;12.00;100.00
4085;BME280;2057;50.858;6.572;2023-03-13T04:58:00;98849.06;;;12.17;100.00
4085;BME280;2057;50.858;6.572;2023-03-13T05:00:25;98849.03;;;12.14;100.00
4085;BME280;2057;50.858;6.572;2023-03-13T05:02:53;98853.97;;;12.04;100.00
4085;BME280;2057;50.858;6.572;2023-03-13T05:05:19;98862.19;;;11.91;100.00
4085;BME280;2057;50.858;6.572;2023-03-13T05:07:44;98848.00;;;12.02;100.00
4085;BME280;2057;50.858;6.572;2023-03-13T05:10:11;98842.19;;;12.10;100.00
4085;BME280;2057;50.858;6.572;2023-03-13T05:12:36;98840.47;;;12.08;100.00
4085;BME280;2057;50.858;6.572;2023-03-13T05:15:05;98828.72;;;12.15;100.00
4085;BME280;2057;50.858;6.572;2023-03-13T05:17:33;98822.13;;;12.31;100.00
4085;BME280;2057;50.858;6.572;2023-03-13T05:19:58;98833.88;;;12.21;100.00
4085;BME280;2057;50.858;6.572;2023-03-13T05:22:23;98819.50;;;12.23;100.00
4085;BME280;2057;50.858;6.572;2023-03-13T05:24:49;98818.75;;;12.29;100.00
4085;BME280;2057;50.858;6.572;2023-03-13T05:27:14;98816.28;;;12.34;100.00
4085;BME280;2057;50.858;6.572;2023-03-13T05:29:39;98824.81;;;12.39;100.00
4085;BME280;2057;50.858;6.572;2023-03-13T05:34:39;98814.50;;;12.30;100.00
4085;BME280;2057;50.858;6.572;2023-03-13T05:37:04;98800.22;;;12.39;100.00
4085;BME280;2057;50.858;6.572;2023-03-13T05:39:29;98787.47;;;12.38;100.00
4085;BME280;2057;50.858;6.572;2023-03-13T05:41:58;98784.03;;;12.36;100.00
4085;BME280;2057;50.858;6.572;2023-03-13T05:44:23;98781.53;;;12.37;100.00
4085;BME280;2057;50.858;6.572;2023-03-13T05:46:51;98784.16;;;12.42;100.00
4085;BME280;2057;50.858;6.572;2023-03-13T05:49:16;98780.63;;;12.34;100.00
4085;BME280;2057;50.858;6.572;2023-03-13T06:20:09;98841.84;;;12.43;100.00
4085;BME280;2057;50.858;6.572;2023-03-13T06:22:34;98844.34;;;12.42;100.00
4085;BME280;2057;50.858;6.572;2023-03-13T06:24:59;98851.22;;;12.47;100.00
4085;BME280;2057;50.858;6.572;2023-03-13T06:27:27;98864.31;;;12.72;100.00
4085;BME280;2057;50.858;6.572;2023-03-13T06:29:57;98849.19;;;12.84;100.00
4085;BME280;2057;50.858;6.572;2023-03-13T06:32:22;98860.91;;;12.73;100.00
4085;BME280;2057;50.858;6.572;2023-03-13T06:34:48;98862.63;;;12.74;100.00
4085;BME280;2057;50.858;6.572;2023-03-13T06:37:13;98868.56;;;12.73;100.00
4085;BME280;2057;50.858;6.572;2023-03-13T06:39:39;98861.13;;;12.89;100.00
4085;BME280;2057;50.858;6.572;2023-03-13T06:42:04;98857.72;;;12.86;100.00
4085;BME280;2057;50.858;6.572;2023-03-13T06:44:30;98863.53;;;12.76;100.00
4085;BME280;2057;50.858;6.572;2023-03-13T06:46:57;98866.13;;;12.82;100.00
4085;BME280;2057;50.858;6.572;2023-03-13T06:49:23;98874.66;;;12.84;100.00
4085;BME280;2057;50.858;6.572;2023-03-13T06:51:48;98873.97;;;12.96;100.00
4085;BME280;2057;50.858;6.572;2023-03-13T06:54:14;98866.50;;;13.10;100.00
4085;BME280;2057;50.858;6.572;2023-03-13T06:56:39;98869.72;;;12.97;100.00
4085;BME280;2057;50.858;6.572;2023-03-13T06:59:04;98873.94;;;12.95;100.00
4085;BME280;2057;50.858;6.572;2023-03-13T07:01:30;98874.91;;;13.03;100.00
4085;BME280;2057;50.858;6.572;2023-03-13T07:03:55;98875.91;;;13.16;100.00
4085;BME280;2057;50.858;6.572;2023-03-13T07:06:21;98878.31;;;13.05;100.00
4085;BME280;2057;50.858;6.572;2023-03-13T07:08:49;98887.53;;;12.94;100.00
4085;BME280;2057;50.858;6.572;2023-03-13T07:11:14;98874.03;;;13.02;100.00
4085;BME280;2057;50.858;6.572;2023-03-13T07:13:43;98876.69;;;13.10;100.00
4085;BME280;2057;50.858;6.572;2023-03-13T07:16:11;98906.50;;;13.17;100.00
4085;BME280;2057;50.858;6.572;2023-03-13T07:18:37;98871.53;;;13.04;100.00
4085;BME280;2057;50.858;6.572;2023-03-13T07:21:03;98871.59;;;13.09;100.00
4085;BME280;2057;50.858;6.572;2023-03-13T07:23:32;98861.34;;;13.04;100.00
4085;BME280;2057;50.858;6.572;2023-03-13T07:26:04;98865.56;;;13.03;100.00
4085;BME280;2057;50.858;6.572;2023-03-13T07:28:30;98844.31;;;13.01;100.00
4085;BME280;2057;50.858;6.572;2023-03-13T07:31:10;98832.44;;;13.05;100.00
4085;BME280;2057;50.858;6.572;2023-03-13T07:33:36;98840.25;;;13.19;100.00
4085;BME280;2057;50.858;6.572;2023-03-13T07:36:04;98835.06;;;13.10;100.00
4085;BME280;2057;50.858;6.572;2023-03-13T07:38:30;98838.47;;;13.12;100.00
4085;BME280;2057;50.858;6.572;2023-03-13T07:40:58;98841.84;;;13.08;100.00
4085;BME280;2057;50.858;6.572;2023-03-13T07:43:24;98831.66;;;13.11;100.00
4085;BME280;2057;50.858;6.572;2023-03-13T07:45:55;98832.59;;;13.17;99.87
4085;BME280;2057;50.858;6.572;2023-03-13T07:48:23;98838.53;;;13.16;99.48
4085;BME280;2057;50.858;6.572;2023-03-13T07:50:49;98830.00;;;13.14;99.69
4085;BME280;2057;50.858;6.572;2023-03-13T07:53:15;98838.53;;;13.15;99.92
4085;BME280;2057;50.858;6.572;2023-03-13T07:55:56;98831.00;;;13.26;99.28
4085;BME280;2057;50.858;6.572;2023-03-13T07:58:23;98836.09;;;13.26;98.72
4085;BME280;2057;50.858;6.572;2023-03-13T08:00:50;98837.75;;;13.22;99.79
4085;BME280;2057;50.858;6.572;2023-03-13T08:03:15;98827.66;;;13.31;98.84
4085;BME280;2057;50.858;6.572;2023-03-13T08:05:43;98826.91;;;13.40;98.09
4085;BME280;2057;50.858;6.572;2023-03-13T08:08:08;98821.78;;;13.37;98.78
4085;BME280;2057;50.858;6.572;2023-03-13T08:10:33;98827.03;;;13.49;97.60
4085;BME280;2057;50.858;6.572;2023-03-13T08:13:02;98824.50;;;13.53;97.56
4085;BME280;2057;50.858;6.572;2023-03-13T08:15:29;98822.84;;;13.56;97.48
4085;BME280;2057;50.858;6.572;2023-03-13T08:17:55;98831.38;;;13.57;97.65
4085;BME280;2057;50.858;6.572;2023-03-13T08:20:23;98830.50;;;13.55;99.69
4085;BME280;2057;50.858;6.572;2023-03-13T08:22:48;98826.00;;;13.35;100.00
4085;BME280;2057;50.858;6.572;2023-03-13T08:25:16;98818.41;;;13.38;100.00
4085;BME280;2057;50.858;6.572;2023-03-13T08:27:42;98825.94;;;13.29;100.00
4085;BME280;2057;50.858;6.572;2023-03-13T08:30:10;98825.84;;;13.23;100.00
4085;BME280;2057;50.858;6.572;2023-03-13T08:32:36;98813.16;;;13.26;100.00
4085;BME280;2057;50.858;6.572;2023-03-13T08:35:05;98830.16;;;13.28;100.00
4085;BME280;2057;50.858;6.572;2023-03-13T08:37:31;98841.16;;;13.23;100.00
4085;BME280;2057;50.858;6.572;2023-03-13T08:39:58;98831.81;;;13.23;100.00
4085;BME280;2057;50.858;6.572;2023-03-13T08:42:28;98823.25;;;13.18;100.00
4085;BME280;2057;50.858;6.572;2023-03-13T08:44:53;98833.50;;;13.23;100.00
4085;BME280;2057;50.858;6.572;2023-03-13T08:47:19;98820.75;;;13.20;100.00
4085;BME280;2057;50.858;6.572;2023-03-13T08:49:45;98822.38;;;13.14;100.00
4085;BME280;2057;50.858;6.572;2023-03-13T08:52:12;98818.94;;;13.09;100.00
4085;BME280;2057;50.858;6.572;2023-03-13T08:54:38;98826.63;;;13.14;100.00
4085;BME280;2057;50.858;6.572;2023-03-13T08:57:04;98815.59;;;13.18;100.00
4085;BME280;2057;50.858;6.572;2023-03-13T08:59:29;98820.69;;;13.16;100.00
4085;BME280;2057;50.858;6.572;2023-03-13T09:01:58;98819.19;;;13.34;100.00
4085;BME280;2057;50.858;6.572;2023-03-13T09:04:23;98825.13;;;13.31;100.00
4085;BME280;2057;50.858;6.572;2023-03-13T09:06:50;98814.88;;;13.28;100.00
4085;BME280;2057;50.858;6.572;2023-03-13T09:09:16;98809.88;;;13.34;100.00
4085;BME280;2057;50.858;6.572;2023-03-13T09:11:41;98825.16;;;13.36;100.00
4085;BME280;2057;50.858;6.572;2023-03-13T09:14:09;98805.56;;;13.32;100.00
4085;BME280;2057;50.858;6.572;2023-03-13T09:16:36;98797.03;;;13.27;100.00
4085;BME280;2057;50.858;6.572;2023-03-13T09:19:04;98804.69;;;13.27;100.00
4085;BME280;2057;50.858;6.572;2023-03-13T09:21:32;98806.41;;;13.31;100.00
4085;BME280;2057;50.858;6.572;2023-03-13T09:23:58;98810.63;;;13.26;100.00
4085;BME280;2057;50.858;6.572;2023-03-13T09:26:23;98803.91;;;13.34;100.00
4085;BME280;2057;50.858;6.572;2023-03-13T09:28:52;98790.38;;;13.38;100.00
4085;BME280;2057;50.858;6.572;2023-03-13T09:31:23;98789.56;;;13.44;100.00
4085;BME280;2057;50.858;6.572;2023-03-13T09:33:49;98784.50;;;13.47;100.00
4085;BME280;2057;50.858;6.572;2023-03-13T09:36:18;98773.44;;;13.45;100.00
4085;BME280;2057;50.858;6.572;2023-03-13T09:38:48;98789.63;;;13.48;100.00
4085;BME280;2057;50.858;6.572;2023-03-13T09:44:11;98780.38;;;13.57;100.00
4085;BME280;2057;50.858;6.572;2023-03-13T09:54:45;98773.91;;;13.99;100.00
4085;BME280;2057;50.858;6.572;2023-03-13T09:57:34;98769.72;;;14.09;100.00
4085;BME280;2057;50.858;6.572;2023-03-13T10:00:07;98763.78;;;14.16;100.00
4085;BME280;2057;50.858;6.572;2023-03-13T10:02:40;98764.69;;;14.21;100.00
4085;BME280;2057;50.858;6.572;2023-03-13T10:05:21;98763.88;;;14.30;100.00
4085;BME280;2057;50.858;6.572;2023-03-13T10:07:46;98762.19;;;14.32;100.00
4085;BME280;2057;50.858;6.572;2023-03-13T10:10:44;98763.94;;;14.41;100.00
4085;BME280;2057;50.858;6.572;2023-03-13T10:14:01;98755.44;;;14.48;100.00
4085;BME280;2057;50.858;6.572;2023-03-13T10:16:01;98746.97;;;14.51;100.00
4085;BME280;2057;50.858;6.572;2023-03-13T10:18:29;98752.09;;;14.51;100.00
4085;BME280;2057;50.858;6.572;2023-03-13T10:20:58;98768.25;;;14.57;100.00
4085;BME280;2057;50.858;6.572;2023-03-13T10:23:38;98733.38;;;14.52;100.00
4085;BME280;2057;50.858;6.572;2023-03-13T10:26:13;98745.28;;;14.56;100.00
4085;BME280;2057;50.858;6.572;2023-03-13T10:28:40;98723.22;;;14.69;100.00
4085;BME280;2057;50.858;6.572;2023-03-13T10:31:15;98736.00;;;14.69;99.10
4085;BME280;2057;50.858;6.572;2023-03-13T10:33:41;98731.81;;;14.85;99.91
4085;BME280;2057;50.858;6.572;2023-03-13T10:36:13;98722.47;;;14.95;99.64
4085;BME280;2057;50.858;6.572;2023-03-13T10:38:50;98731.84;;;14.99;96.94
4085;BME280;2057;50.858;6.572;2023-03-13T10:41:39;98728.44;;;15.08;95.85
4085;BME280;2057;50.858;6.572;2023-03-13T10:44:11;98709.72;;;15.18;95.29
4085;BME280;2057;50.858;6.572;2023-03-13T10:46:41;98696.09;;;15.33;93.35
4085;BME280;2057;50.858;6.572;2023-03-13T10:49:18;98714.00;;;15.47;93.96
4085;BME280;2057;50.858;6.572;2023-03-13T10:51:51;98688.41;;;15.61;93.37
4085;BME280;2057;50.858;6.572;2023-03-13T10:54:22;98691.84;;;15.64;93.06
4085;BME280;2057;50.858;6.572;2023-03-13T10:56:49;98679.88;;;15.71;92.73
4085;BME280;2057;50.858;6.572;2023-03-13T10:59:24;98673.06;;;15.65;92.00
4085;BME280;2057;50.858;6.572;2023-03-13T11:02:00;98662.84;;;15.53;91.43
4085;BME280;2057;50.858;6.572;2023-03-13T11:04:35;98667.97;;;15.47;93.88
4085;BME280;2057;50.858;6.572;2023-03-13T11:07:13;98656.88;;;15.51;93.38
4085;BME280;2057;50.858;6.572;2023-03-13T11:09:39;98656.00;;;15.63;93.33
4085;BME280;2057;50.858;6.572;2023-03-13T11:12:18;98658.56;;;15.67;92.87
4085;BME280;2057;50.858;6.572;2023-03-13T11:14:44;98640.63;;;15.74;92.16
4085;BME280;2057;50.858;6.572;2023-03-13T11:17:39;98634.69;;;15.76;90.92
4085;BME280;2057;50.858;6.572;2023-03-13T11:22:42;98610.78;;;15.79;91.54
4085;BME280;2057;50.858;6.572;2023-03-13T11:25:21;98630.34;;;16.02;90.51
4085;BME280;2057;50.858;6.572;2023-03-13T11:31:04;98596.28;;;15.82;89.92
4085;BME280;2057;50.858;6.572;2023-03-13T11:33:46;98602.28;;;15.86;88.94
4085;BME280;2057;50.858;6.572;2023-03-13T11:36:24;98585.19;;;15.91;88.20
4085;BME280;2057;50.858;6.572;2023-03-13T11:39:23;98590.25;;;16.04;89.93
4085;BME280;2057;50.858;6.572;2023-03-13T11:42:05;98579.16;;;16.09;91.44
4085;BME280;2057;50.858;6.572;2023-03-13T11:44:48;98583.41;;;16.07;90.26
4085;BME280;2057;50.858;6.572;2023-03-13T11:55:24;98563.09;;;15.62;89.15
4085;BME280;2057;50.858;6.572;2023-03-13T12:00:53;98540.09;;;15.51;89.43
4085;BME280;2057;50.858;6.572;2023-03-13T12:06:31;98513.56;;;15.82;90.02
4085;BME280;2057;50.858;6.572;2023-03-13T12:11:46;98523.78;;;15.82;84.71
4085;BME280;2057;50.858;6.572;2023-03-13T12:14:25;98507.53;;;15.98;85.20
4085;BME280;2057;50.858;6.572;2023-03-13T12:16:59;98518.59;;;16.00;83.54
4085;BME280;2057;50.858;6.572;2023-03-13T12:19:48;98523.72;;;16.00;82.85
4085;BME280;2057;50.858;6.572;2023-03-13T12:22:25;98510.06;;;16.05;83.02
4085;BME280;2057;50.858;6.572;2023-03-13T12:24:57;98510.84;;;16.14;83.09
4085;BME280;2057;50.858;6.572;2023-03-13T12:27:30;98504.84;;;16.17;85.18
4085;BME280;2057;50.858;6.572;2023-03-13T12:30:00;98498.84;;;16.24;83.26
4085;BME280;2057;50.858;6.572;2023-03-13T12:32:42;98465.38;;;16.49;84.98
4085;BME280;2057;50.858;6.572;2023-03-13T12:35:29;98474.13;;;16.20;82.30
4085;BME280;2057;50.858;6.572;2023-03-13T12:43:36;98462.03;;;16.41;82.06
4085;BME280;2057;50.858;6.572;2023-03-13T12:46:18;98470.44;;;16.55;82.93
4085;BME280;2057;50.858;6.572;2023-03-13T12:48:56;98464.47;;;16.56;82.71
4085;BME280;2057;50.858;6.572;2023-03-13T12:51:46;98479.88;;;16.49;83.06
4085;BME280;2057;50.858;6.572;2023-03-13T12:54:34;98461.06;;;16.56;82.22
4085;BME280;2057;50.858;6.572;2023-03-13T12:59:35;98482.53;;;16.38;82.51
4085;BME280;2057;50.858;6.572;2023-03-13T13:02:14;98440.75;;;16.31;82.58
4085;BME280;2057;50.858;6.572;2023-03-13T13:04:44;98443.25;;;16.42;81.44
4085;BME280;2057;50.858;6.572;2023-03-13T13:07:34;98415.16;;;16.33;81.43
4085;BME280;2057;50.858;6.572;2023-03-13T13:13:15;98437.13;;;16.58;82.73
4085;BME280;2057;50.858;6.572;2023-03-13T13:15:31;98450.97;;;16.34;82.82
4085;BME280;2057;50.858;6.572;2023-03-13T13:18:11;98437.19;;;16.49;85.30
4085;BME280;2057;50.858;6.572;2023-03-13T13:21:17;98442.28;;;16.54;85.73
4085;BME280;2057;50.858;6.572;2023-03-13T13:23:40;98428.78;;;16.36;85.83
4085;BME280;2057;50.858;6.572;2023-03-13T13:26:42;98434.03;;;16.14;86.17
4085;BME280;2057;50.858;6.572;2023-03-13T13:30:00;98451.94;;;16.19;87.62
4085;BME280;2057;50.858;6.572;2023-03-13T13:31:59;98437.25;;;16.43;87.57
4085;BME280;2057;50.858;6.572;2023-03-13T13:39:49;98441.53;;;16.41;86.23
4085;BME280;2057;50.858;6.572;2023-03-13T13:44:58;98407.34;;;16.45;87.67
4085;BME280;2057;50.858;6.572;2023-03-13T13:47:28;98402.34;;;16.33;86.45
4085;BME280;2057;50.858;6.572;2023-03-13T13:49:58;98417.97;;;15.98;88.08
4085;BME280;2057;50.858;6.572;2023-03-13T13:52:40;98419.69;;;15.93;87.69
4085;BME280;2057;50.858;6.572;2023-03-13T13:55:32;98399.22;;;15.93;86.45
4085;BME280;2057;50.858;6.572;2023-03-13T13:58:13;98404.31;;;15.96;84.06
4085;BME280;2057;50.858;6.572;2023-03-13T14:00:45;98381.19;;;16.07;86.33
4085;BME280;2057;50.858;6.572;2023-03-13T14:03:27;98377.72;;;16.18;84.99
4085;BME280;2057;50.858;6.572;2023-03-13T14:06:17;98371.44;;;16.51;84.10
4085;BME280;2057;50.858;6.572;2023-03-13T14:08:42;98358.78;;;16.34;84.24
4085;BME280;2057;50.858;6.572;2023-03-13T14:11:37;98343.34;;;16.40;85.18
4085;BME280;2057;50.858;6.572;2023-03-13T14:16:51;98377.66;;;16.22;84.46
4085;BME280;2057;50.858;6.572;2023-03-13T14:19:39;98351.25;;;16.17;82.92
4085;BME280;2057;50.858;6.572;2023-03-13T14:22:10;98341.09;;;16.08;83.46
4085;BME280;2057;50.858;6.572;2023-03-13T14:24:36;98358.19;;;16.03;83.15
4085;BME280;2057;50.858;6.572;2023-03-13T14:27:15;98349.59;;;16.10;84.99
4085;BME280;2057;50.858;6.572;2023-03-13T14:29:41;98342.72;;;16.20;84.26
4085;BME280;2057;50.858;6.572;2023-03-13T14:32:27;98328.94;;;16.30;81.65
4085;BME280;2057;50.858;6.572;2023-03-13T14:34:52;98331.50;;;16.30;81.72
4085;BME280;2057;50.858;6.572;2023-03-13T14:37:41;98345.34;;;16.10;82.65
4085;BME280;2057;50.858;6.572;2023-03-13T14:40:18;98333.44;;;16.05;82.73
4085;BME280;2057;50.858;6.572;2023-03-13T14:42:49;98341.19;;;15.95;83.05
4085;BME280;2057;50.858;6.572;2023-03-13T14:45:21;98326.69;;;15.94;83.80
4085;BME280;2057;50.858;6.572;2023-03-13T14:47:49;98335.28;;;15.90;84.48
4085;BME280;2057;50.858;6.572;2023-03-13T14:50:18;98325.91;;;15.89;83.83
4085;BME280;2057;50.858;6.572;2023-03-13T14:52:55;98314.84;;;15.79;84.87
4085;BME280;2057;50.858;6.572;2023-03-13T14:58:19;98322.59;;;15.65;84.62
4085;BME280;2057;50.858;6.572;2023-03-13T15:00:48;98291.88;;;15.72;84.85
4085;BME280;2057;50.858;6.572;2023-03-13T15:06:01;98289.38;;;15.61;85.16
4085;BME280;2057;50.858;6.572;2023-03-13T15:08:27;98301.38;;;15.56;83.89